createdAt,value
2023-04-03T00:04:01.588Z,102479.66
2023-04-03T00:09:04.734Z,102486.47
2023-04-03T00:14:06.476Z,102488.63
2023-04-03T00:19:08.216Z,102486.94
2023-04-03T00:24:11.361Z,102484.38
2023-04-03T00:29:13.148Z,102487.66
2023-04-03T00:34:14.831Z,102482.09
2023-04-03T00:39:17.864Z,102485.69
2023-04-03T00:44:21.481Z,102494.53
2023-04-03T00:49:24.118Z,102493.22
2023-04-03T00:54:27.488Z,102501.38
2023-04-03T00:59:31.417Z,102503.63
2023-04-03T01:04:34.358Z,102509.53
2023-04-03T01:09:37.838Z,102515.13
2023-04-03T01:14:39.718Z,102518.94
2023-04-03T01:19:41.473Z,102519.19
2023-04-03T01:24:44.487Z,102518.72
2023-04-03T01:29:46.761Z,102517.63
2023-04-03T01:34:49.814Z,102522.41
2023-04-03T01:39:51.505Z,102525.78
2023-04-03T01:44:53.318Z,102529.88
2023-04-03T01:49:56.431Z,102515.94
2023-04-03T01:54:58.254Z,102519.72
2023-04-03T02:00:00.372Z,102532.00
2023-04-03T02:05:04.009Z,102533.34
2023-04-03T02:10:06.466Z,102535.34
2023-04-03T02:15:09.119Z,102543.81
2023-04-03T02:20:13.405Z,102537.31
2023-04-03T02:25:15.493Z,102538.88
2023-04-03T02:30:17.323Z,102541.69
2023-04-03T02:35:20.455Z,102546.69
2023-04-03T02:40:23.572Z,102539.66
2023-04-03T02:45:26.183Z,102557.75
2023-04-03T02:50:29.729Z,102561.09
2023-04-03T02:55:31.570Z,102560.22
2023-04-03T03:00:33.372Z,102562.41
2023-04-03T03:05:37.192Z,102550.13
2023-04-03T03:10:39.144Z,102555.38
2023-04-03T03:15:42.816Z,102555.28
2023-04-03T03:20:46.039Z,102558.38
2023-04-03T03:25:47.952Z,102564.94
2023-04-03T03:30:49.686Z,102569.06
2023-04-03T03:35:54.190Z,102569.97
2023-04-03T03:40:55.978Z,102570.84
2023-04-03T03:45:59.490Z,102565.50
2023-04-03T03:51:04.161Z,102561.16
2023-04-03T03:56:11.008Z,102568.84
2023-04-03T04:01:14.858Z,102566.81
2023-04-03T04:06:22.839Z,102567.59
2023-04-03T04:11:25.894Z,102556.53
2023-04-03T04:16:29.380Z,102574.63
2023-04-03T04:21:36.185Z,102573.63
2023-04-03T04:26:38.109Z,102578.09
2023-04-03T04:31:41.146Z,102590.03
2023-04-03T04:36:44.694Z,102590.72
2023-04-03T04:41:47.191Z,102595.59
2023-04-03T04:46:49.109Z,102593.59
2023-04-03T04:51:52.691Z,102603.59
2023-04-03T04:56:59.891Z,102605.38
2023-04-03T05:02:03.523Z,102607.22
2023-04-03T05:07:07.836Z,102609.88
2023-04-03T05:12:11.790Z,102616.69
2023-04-03T05:17:19.520Z,102619.28
2023-04-03T05:22:26.913Z,102623.50
2023-04-03T05:27:32.201Z,102623.22
2023-04-03T05:32:35.016Z,102629.72
2023-04-03T05:37:52.067Z,102643.06
2023-04-03T05:42:54.549Z,102645.31
2023-04-03T05:47:58.870Z,102643.56
2023-04-03T05:53:02.285Z,102651.78
2023-04-03T05:58:05.874Z,102651.34
2023-04-03T06:03:08.347Z,102651.69
2023-04-03T06:08:11.896Z,102637.66
2023-04-03T06:13:13.642Z,102647.75
2023-04-03T06:18:16.229Z,102645.50
2023-04-03T06:23:19.293Z,102651.78
2023-04-03T06:28:21.143Z,102649.03
2023-04-03T06:33:22.813Z,102653.91
2023-04-03T06:38:25.932Z,102650.94
2023-04-03T06:43:27.607Z,102659.63
2023-04-03T06:48:29.483Z,102670.94
2023-04-03T06:53:32.516Z,102670.22
2023-04-03T06:58:34.255Z,102663.69
2023-04-03T07:03:36.491Z,102670.78
2023-04-03T07:08:39.692Z,102672.72
2023-04-03T07:13:41.459Z,102675.69
2023-04-03T07:18:43.161Z,102684.78
2023-04-03T07:23:46.257Z,102688.81
2023-04-03T07:28:49.605Z,102689.16
2023-04-03T07:33:51.339Z,102706.44
2023-04-03T07:38:54.405Z,102703.13
2023-04-03T07:43:57.445Z,102704.69
2023-04-03T07:48:59.172Z,102696.38
2023-04-03T07:54:02.452Z,102695.00
2023-04-03T07:59:04.140Z,102689.28
2023-04-03T08:04:07.706Z,102680.63
2023-04-03T08:09:11.103Z,102675.00
2023-04-03T08:14:17.264Z,102662.34
2023-04-03T08:19:26.008Z,102676.34
2023-04-03T08:24:29.797Z,102681.63
2023-04-03T08:29:32.937Z,102668.50
2023-04-03T08:34:35.896Z,102680.38
2023-04-03T08:39:38.933Z,102676.19
2023-04-03T08:44:42.518Z,102663.97
2023-04-03T08:49:49.893Z,102668.72
2023-04-03T08:54:54.757Z,102656.72
2023-04-03T08:59:56.677Z,102663.16
2023-04-03T09:04:59.039Z,102656.31
2023-04-03T09:10:03.984Z,102654.00
2023-04-03T09:15:12.097Z,102661.56
2023-04-03T09:20:20.644Z,102656.25
2023-04-03T09:25:25.401Z,102647.66
2023-04-03T09:30:27.388Z,102655.13
2023-04-03T09:35:40.469Z,102655.56
2023-04-03T09:40:52.195Z,102659.59
2023-04-03T09:45:54.046Z,102657.16
2023-04-03T09:50:59.801Z,102665.44
2023-04-03T09:56:04.474Z,102653.44
2023-04-03T10:01:06.235Z,102635.38
2023-04-03T10:06:21.902Z,102631.00
2023-04-03T10:11:26.032Z,102619.69
2023-04-03T10:16:30.421Z,102602.13
2023-04-03T10:21:37.158Z,102599.19
2023-04-03T10:26:46.148Z,102617.31
2023-04-03T10:31:51.816Z,102610.97
2023-04-03T10:36:56.059Z,102608.34
2023-04-03T10:42:16.089Z,102607.69
2023-04-03T10:47:20.595Z,102610.75
2023-04-03T10:52:24.089Z,102611.94
2023-04-03T10:57:27.132Z,102607.00
2023-04-03T11:02:31.618Z,102604.00
2023-04-03T11:07:34.483Z,102598.88
2023-04-03T11:12:43.055Z,102598.94
2023-04-03T11:17:47.434Z,102587.03
2023-04-03T11:22:51.884Z,102591.44
2023-04-03T11:27:57.650Z,102579.56
2023-04-03T11:33:06.387Z,102572.53
2023-04-03T11:38:08.131Z,102562.50
2023-04-03T11:43:21.618Z,102563.06
2023-04-03T11:48:46.298Z,102557.41
2023-04-03T11:53:48.325Z,102559.66
2023-04-03T11:59:19.288Z,102551.16
2023-04-03T12:04:21.965Z,102545.19
2023-04-03T12:09:25.653Z,102537.16
2023-04-03T12:14:28.731Z,102539.44
2023-04-03T12:19:41.810Z,102538.00
2023-04-03T12:24:44.814Z,102539.69
2023-04-03T12:29:52.312Z,102536.91
2023-04-03T12:35:02.376Z,102539.13
2023-04-03T12:40:09.161Z,102535.78
2023-04-03T12:45:17.210Z,102524.31
2023-04-03T12:50:22.345Z,102519.00
2023-04-03T12:55:24.156Z,102518.97
2023-04-03T13:00:36.451Z,102509.69
2023-04-03T13:05:38.371Z,102511.97
2023-04-03T13:10:53.413Z,102501.88
2023-04-03T13:15:56.710Z,102507.88
2023-04-03T13:21:02.017Z,102506.97
2023-04-03T13:26:04.543Z,102498.53
2023-04-03T13:31:11.609Z,102495.16
2023-04-03T13:36:18.405Z,102489.22
2023-04-03T13:41:26.082Z,102485.63
2023-04-03T13:46:29.402Z,102487.19
2023-04-03T13:51:31.373Z,102472.06
2023-04-03T13:56:34.168Z,102463.84
2023-04-03T14:01:43.652Z,102463.09
2023-04-03T14:06:45.712Z,102465.44
2023-04-03T14:11:48.324Z,102463.31
2023-04-03T14:16:54.113Z,102461.78
2023-04-03T14:21:55.948Z,102457.59
2023-04-03T14:26:57.809Z,102456.88
2023-04-03T14:32:13.848Z,102453.50
2023-04-03T14:37:17.766Z,102457.44
2023-04-03T14:42:21.343Z,102452.38
2023-04-03T14:47:31.345Z,102444.13
2023-04-03T14:52:35.542Z,102429.22
2023-04-03T14:57:37.371Z,102433.09
2023-04-03T15:02:41.285Z,102439.31
2023-04-03T15:07:44.014Z,102446.75
2023-04-03T15:12:45.983Z,102442.59
2023-04-03T15:17:51.404Z,102438.47
2023-04-03T15:22:53.208Z,102430.78
2023-04-03T15:27:55.046Z,102435.28
2023-04-03T15:32:58.117Z,102425.69
2023-04-03T15:37:59.815Z,102443.47
2023-04-03T15:43:01.518Z,102434.78
2023-04-03T15:48:05.464Z,102437.00
2023-04-03T15:53:07.263Z,102424.22
2023-04-03T15:58:09.039Z,102429.94
2023-04-03T16:03:13.196Z,102425.31
2023-04-03T16:08:14.979Z,102427.16
2023-04-03T16:13:16.765Z,102434.41
2023-04-03T16:18:19.903Z,102429.13
2023-04-03T16:23:21.622Z,102420.97
2023-04-03T16:28:23.395Z,102414.22
2023-04-03T16:33:27.023Z,102409.53
2023-04-03T16:38:28.755Z,102413.91
2023-04-03T16:43:30.655Z,102414.97
2023-04-03T16:48:33.716Z,102416.31
2023-04-03T16:53:36.678Z,102416.41
2023-04-03T16:58:38.441Z,102414.09
2023-04-03T17:03:41.585Z,102419.47
2023-04-03T17:08:43.460Z,102418.84
2023-04-03T17:13:45.391Z,102419.50
2023-04-03T17:18:48.421Z,102415.44
2023-04-03T17:23:52.107Z,102420.34
2023-04-03T17:28:53.868Z,102420.81
2023-04-03T17:33:56.879Z,102418.22
2023-04-03T17:38:58.726Z,102418.50
2023-04-03T17:44:00.527Z,102424.44
2023-04-03T17:49:04.542Z,102425.28
2023-04-03T17:54:06.275Z,102427.38
2023-04-03T17:59:08.135Z,102426.50
2023-04-03T18:04:11.269Z,102419.38
2023-04-03T18:09:15.255Z,102433.16
2023-04-03T18:14:20.313Z,102427.25
2023-04-03T18:19:24.069Z,102435.09
2023-04-03T18:24:26.174Z,102434.28
2023-04-03T18:29:28.655Z,102440.75
2023-04-03T18:34:31.746Z,102435.56
2023-04-03T18:39:33.518Z,102444.97
2023-04-03T18:44:35.277Z,102444.81
2023-04-03T18:49:39.180Z,102445.22
2023-04-03T18:54:42.695Z,102443.44
2023-04-03T18:59:44.435Z,102451.47
2023-04-03T19:04:47.937Z,102448.84
2023-04-03T19:09:49.685Z,102447.94
2023-04-03T19:14:51.382Z,102452.88
2023-04-03T19:19:54.392Z,102457.50
2023-04-03T19:24:56.338Z,102459.44
2023-04-03T19:29:58.350Z,102462.31
2023-04-03T19:35:01.380Z,102458.22
2023-04-03T19:40:03.694Z,102464.22
2023-04-03T19:45:07.778Z,102463.16
2023-04-03T19:50:11.255Z,102461.03
2023-04-03T19:55:13.037Z,102468.97
2023-04-03T20:00:15.492Z,102465.91
2023-04-03T20:05:18.609Z,102454.59
2023-04-03T20:10:20.355Z,102464.50
2023-04-03T20:15:22.073Z,102466.06
2023-04-03T20:20:25.037Z,102474.03
2023-04-03T20:25:46.167Z,102470.78
2023-04-03T20:30:51.240Z,102471.94
2023-04-03T20:35:55.278Z,102463.66
2023-04-03T20:40:56.957Z,102475.69
2023-04-03T20:45:59.667Z,102466.47
2023-04-03T20:51:09.509Z,102458.53
2023-04-03T20:56:11.297Z,102456.75
2023-04-03T21:01:14.883Z,102447.25
2023-04-03T21:06:55.441Z,102443.63
2023-04-03T21:12:34.440Z,102438.56
2023-04-03T21:17:36.129Z,102450.38
2023-04-03T21:22:43.167Z,102444.16
2023-04-03T21:27:45.096Z,102440.91
2023-04-03T21:32:46.813Z,102434.88
2023-04-03T21:37:50.157Z,102437.63
2023-04-03T21:42:53.772Z,102435.16
2023-04-03T21:47:55.508Z,102434.66
2023-04-03T21:52:59.189Z,102430.88
2023-04-03T21:58:01.018Z,102422.66
2023-04-03T22:03:09.869Z,102430.50
2023-04-03T22:08:13.843Z,102433.59
2023-04-03T22:13:15.797Z,102435.94
2023-04-03T22:18:17.563Z,102440.59
2023-04-03T22:23:20.911Z,102434.06
2023-04-03T22:28:22.644Z,102435.09
2023-04-03T22:33:25.520Z,102429.59
2023-04-03T22:38:28.566Z,102434.22
2023-04-03T22:43:31.464Z,102435.81
2023-04-03T22:48:33.468Z,102438.75
2023-04-03T22:53:36.741Z,102438.13
2023-04-03T22:58:39.087Z,102437.13
2023-04-03T23:03:41.816Z,102428.34
2023-04-03T23:08:44.838Z,102433.59
2023-04-03T23:13:46.717Z,102440.72
2023-04-03T23:18:49.971Z,102439.88
2023-04-03T23:23:53.036Z,102436.03
2023-04-03T23:28:54.728Z,102434.03
2023-04-03T23:33:56.396Z,102426.47
2023-04-03T23:38:59.417Z,102423.66
2023-04-03T23:44:01.144Z,102424.00
2023-04-03T23:49:02.860Z,102427.91
2023-04-03T23:54:06.307Z,102427.63
2023-04-03T23:59:08.053Z,102424.81
